sensor_id;sensor_type;location;lat;lon;timestamp;pressure;altitude;pressure_sealevel;temperature;humidity
113;BME280;45999;48.808;9.182;2023-07-13T00:02:10;98028.91;;;20.78;66.59
113;BME280;45999;48.808;9.182;2023-07-13T00:04:36;98028.97;;;20.73;66.31
113;BME280;45999;48.808;9.182;2023-07-13T00:07:03;98021.47;;;20.70;67.47
113;BME280;45999;48.808;9.182;2023-07-13T00:09:29;98026.69;;;20.56;68.87
113;BME280;45999;48.808;9.182;2023-07-13T00:11:57;98018.88;;;20.55;67.36
113;BME280;45999;48.808;9.182;2023-07-13T00:14:25;98030.72;;;20.59;65.81
113;BME280;45999;48.808;9.182;2023-07-13T00:16:52;98017.78;;;20.56;65.47
113;BME280;45999;48.808;9.182;2023-07-13T00:19:18;98010.81;;;20.50;65.82
113;BME280;45999;48.808;9.182;2023-07-13T00:21:45;98028.94;;;20.44;65.78
113;BME280;45999;48.808;9.182;2023-07-13T00:24:14;98025.44;;;20.44;65.54
113;BME280;45999;48.808;9.182;2023-07-13T00:26:43;98020.66;;;20.36;66.73
113;BME280;45999;48.808;9.182;2023-07-13T00:29:11;98019.00;;;20.40;65.54
113;BME280;45999;48.808;9.182;2023-07-13T00:31:38;98018.53;;;20.28;67.22
113;BME280;45999;48.808;9.182;2023-07-13T00:34:04;98014.00;;;20.23;66.92
113;BME280;45999;48.808;9.182;2023-07-13T00:36:31;98017.25;;;20.20;64.67
113;BME280;45999;48.808;9.182;2023-07-13T00:38:57;98016.44;;;20.25;65.38
113;BME280;45999;48.808;9.182;2023-07-13T00:41:24;98029.41;;;20.18;65.26
113;BME280;45999;48.808;9.182;2023-07-13T00:43:51;98031.09;;;20.09;67.26
113;BME280;45999;48.808;9.182;2023-07-13T00:46:23;98026.78;;;20.08;65.19
113;BME280;45999;48.808;9.182;2023-07-13T00:48:51;98026.81;;;20.03;66.96
113;BME280;45999;48.808;9.182;2023-07-13T00:51:24;98023.56;;;20.01;65.73
113;BME280;45999;48.808;9.182;2023-07-13T00:53:53;98026.81;;;20.03;65.35
113;BME280;45999;48.808;9.182;2023-07-13T00:56:21;98031.97;;;19.94;66.83
113;BME280;45999;48.808;9.182;2023-07-13T00:58:47;98031.97;;;19.94;65.17
113;BME280;45999;48.808;9.182;2023-07-13T01:01:15;98030.06;;;20.00;66.05
113;BME280;45999;48.808;9.182;2023-07-13T01:03:41;98032.75;;;20.00;64.38
113;BME280;45999;48.808;9.182;2023-07-13T01:06:08;98044.41;;;19.90;67.04
113;BME280;45999;48.808;9.182;2023-07-13T01:08:34;98050.69;;;19.76;66.34
113;BME280;45999;48.808;9.182;2023-07-13T01:11:00;98047.97;;;19.81;65.04
113;BME280;45999;48.808;9.182;2023-07-13T01:13:27;98046.63;;;19.83;64.92
113;BME280;45999;48.808;9.182;2023-07-13T01:15:57;98049.63;;;19.77;66.90
113;BME280;45999;48.808;9.182;2023-07-13T01:18:26;98052.34;;;19.72;67.03
113;BME280;45999;48.808;9.182;2023-07-13T01:20:57;98040.50;;;19.63;66.99
113;BME280;45999;48.808;9.182;2023-07-13T01:23:25;98039.97;;;19.60;67.77
113;BME280;45999;48.808;9.182;2023-07-13T01:25:53;98046.50;;;19.49;67.79
113;BME280;45999;48.808;9.182;2023-07-13T01:28:20;98047.03;;;19.57;68.57
113;BME280;45999;48.808;9.182;2023-07-13T01:30:47;98044.88;;;19.53;67.01
113;BME280;45999;48.808;9.182;2023-07-13T01:33:16;98046.28;;;19.41;68.63
113;BME280;45999;48.808;9.182;2023-07-13T01:35:44;98041.13;;;19.44;66.87
113;BME280;45999;48.808;9.182;2023-07-13T01:38:13;98053.19;;;19.57;65.04
113;BME280;45999;48.808;9.182;2023-07-13T01:40:39;98058.94;;;19.40;67.73
113;BME280;45999;48.808;9.182;2023-07-13T01:43:06;98064.06;;;19.42;66.97
113;BME280;45999;48.808;9.182;2023-07-13T01:45:32;98062.16;;;19.42;67.48
113;BME280;45999;48.808;9.182;2023-07-13T01:47:59;98074.03;;;19.36;67.45
113;BME280;45999;48.808;9.182;2023-07-13T01:50:26;98063.81;;;19.18;69.42
113;BME280;45999;48.808;9.182;2023-07-13T01:52:52;98065.44;;;19.14;71.01
113;BME280;45999;48.808;9.182;2023-07-13T01:55:20;98064.38;;;19.00;70.82
113;BME280;45999;48.808;9.182;2023-07-13T01:57:47;98067.66;;;18.97;72.27
113;BME280;45999;48.808;9.182;2023-07-13T02:00:14;98066.00;;;18.96;71.97
113;BME280;45999;48.808;9.182;2023-07-13T02:02:41;98067.13;;;18.85;71.74
113;BME280;45999;48.808;9.182;2023-07-13T02:05:07;98065.47;;;19.04;67.37
113;BME280;45999;48.808;9.182;2023-07-13T02:07:34;98065.97;;;19.21;65.74
113;BME280;45999;48.808;9.182;2023-07-13T02:10:00;98066.00;;;19.16;66.64
113;BME280;45999;48.808;9.182;2023-07-13T02:12:27;98077.34;;;18.98;69.60
113;BME280;45999;48.808;9.182;2023-07-13T02:14:53;98080.81;;;18.99;70.16
113;BME280;45999;48.808;9.182;2023-07-13T02:17:20;98075.44;;;18.89;70.71
113;BME280;45999;48.808;9.182;2023-07-13T02:19:46;98080.59;;;18.75;70.20
113;BME280;45999;48.808;9.182;2023-07-13T02:22:12;98073.31;;;18.76;72.66
113;BME280;45999;48.808;9.182;2023-07-13T02:24:39;98077.34;;;18.73;72.74
113;BME280;45999;48.808;9.182;2023-07-13T02:27:05;98078.44;;;18.67;75.47
113;BME280;45999;48.808;9.182;2023-07-13T02:29:32;98076.00;;;18.56;73.78
113;BME280;45999;48.808;9.182;2023-07-13T02:31:58;98080.56;;;18.55;73.23
113;BME280;45999;48.808;9.182;2023-07-13T02:34:25;98087.56;;;18.46;73.13
113;BME280;45999;48.808;9.182;2023-07-13T02:36:51;98081.13;;;18.52;73.70
113;BME280;45999;48.808;9.182;2023-07-13T02:39:18;98079.50;;;18.41;73.83
113;BME280;45999;48.808;9.182;2023-07-13T02:41:44;98079.22;;;18.33;74.84
113;BME280;45999;48.808;9.182;2023-07-13T02:44:13;98084.84;;;18.31;75.71
113;BME280;45999;48.808;9.182;2023-07-13T02:46:39;98087.00;;;18.29;75.81
113;BME280;45999;48.808;9.182;2023-07-13T02:49:06;98097.47;;;18.26;75.22
113;BME280;45999;48.808;9.182;2023-07-13T02:51:32;98093.69;;;18.22;74.99
113;BME280;45999;48.808;9.182;2023-07-13T02:54:00;98095.53;;;18.06;75.61
113;BME280;45999;48.808;9.182;2023-07-13T02:56:28;98083.75;;;18.17;74.65
113;BME280;45999;48.808;9.182;2023-07-13T02:58:55;98090.75;;;18.18;77.89
113;BME280;45999;48.808;9.182;2023-07-13T03:01:22;98091.25;;;18.05;77.81
113;BME280;45999;48.808;9.182;2023-07-13T03:03:49;98092.59;;;18.03;77.88
113;BME280;45999;48.808;9.182;2023-07-13T03:06:16;98095.28;;;18.03;76.93
113;BME280;45999;48.808;9.182;2023-07-13T03:08:44;98099.28;;;17.95;78.30
113;BME280;45999;48.808;9.182;2023-07-13T03:11:14;98106.81;;;17.88;79.06
113;BME280;45999;48.808;9.182;2023-07-13T03:13:42;98109.22;;;17.90;78.66
113;BME280;45999;48.808;9.182;2023-07-13T03:16:09;98119.47;;;17.93;79.03
113;BME280;45999;48.808;9.182;2023-07-13T03:18:36;98110.06;;;18.00;80.41
113;BME280;45999;48.808;9.182;2023-07-13T03:21:04;98110.63;;;18.07;77.83
113;BME280;45999;48.808;9.182;2023-07-13T03:23:31;98109.84;;;18.17;80.67
113;BME280;45999;48.808;9.182;2023-07-13T03:26:12;98112.84;;;18.25;81.94
113;BME280;45999;48.808;9.182;2023-07-13T03:28:39;98119.00;;;18.26;75.30
113;BME280;45999;48.808;9.182;2023-07-13T03:31:15;98124.19;;;18.42;74.36
113;BME280;45999;48.808;9.182;2023-07-13T03:33:42;98120.16;;;18.45;74.43
113;BME280;45999;48.808;9.182;2023-07-13T03:36:14;98126.34;;;18.50;75.54
113;BME280;45999;48.808;9.182;2023-07-13T03:38:45;98132.28;;;18.57;75.92
113;BME280;45999;48.808;9.182;2023-07-13T03:41:11;98131.22;;;18.58;74.05
113;BME280;45999;48.808;9.182;2023-07-13T03:43:38;98128.00;;;18.61;74.05
113;BME280;45999;48.808;9.182;2023-07-13T03:46:04;98136.34;;;18.60;74.38
113;BME280;45999;48.808;9.182;2023-07-13T03:48:30;98133.91;;;18.68;72.81
113;BME280;45999;48.808;9.182;2023-07-13T03:50:57;98141.72;;;18.70;72.86
113;BME280;45999;48.808;9.182;2023-07-13T03:53:23;98139.56;;;18.72;72.09
113;BME280;45999;48.808;9.182;2023-07-13T03:55:50;98141.47;;;18.76;72.14
113;BME280;45999;48.808;9.182;2023-07-13T03:58:33;98140.91;;;18.69;72.74
113;BME280;45999;48.808;9.182;2023-07-13T04:01:01;98148.47;;;18.67;73.18
113;BME280;45999;48.808;9.182;2023-07-13T04:03:28;98148.19;;;18.64;73.65
113;BME280;45999;48.808;9.182;2023-07-13T04:06:01;98145.25;;;18.75;71.35
113;BME280;45999;48.808;9.182;2023-07-13T04:08:32;98142.53;;;18.70;71.94
113;BME280;45999;48.808;9.182;2023-07-13T04:10:59;98146.03;;;18.71;74.57
113;BME280;45999;48.808;9.182;2023-07-13T04:13:26;98142.81;;;18.64;73.33
113;BME280;45999;48.808;9.182;2023-07-13T04:15:53;98148.19;;;18.64;73.84
113;BME280;45999;48.808;9.182;2023-07-13T04:18:20;98149.81;;;18.60;75.16
113;BME280;45999;48.808;9.182;2023-07-13T04:20:47;98145.75;;;18.62;73.54
113;BME280;45999;48.808;9.182;2023-07-13T04:23:15;98147.38;;;18.58;73.42
113;BME280;45999;48.808;9.182;2023-07-13T04:25:46;98147.38;;;18.63;74.71
113;BME280;45999;48.808;9.182;2023-07-13T04:28:15;98150.06;;;18.73;71.75
113;BME280;45999;48.808;9.182;2023-07-13T04:30:42;98156.00;;;18.65;73.26
113;BME280;45999;48.808;9.182;2023-07-13T04:33:09;98153.84;;;18.67;71.73
113;BME280;45999;48.808;9.182;2023-07-13T04:35:35;98155.44;;;18.68;72.47
113;BME280;45999;48.808;9.182;2023-07-13T04:38:02;98147.91;;;18.60;74.93
113;BME280;45999;48.808;9.182;2023-07-13T04:40:29;98159.75;;;18.54;73.50
113;BME280;45999;48.808;9.182;2023-07-13T04:42:56;98160.81;;;18.53;74.86
113;BME280;45999;48.808;9.182;2023-07-13T04:45:24;98164.31;;;18.49;75.69
113;BME280;45999;48.808;9.182;2023-07-13T04:47:51;98155.97;;;18.40;78.19
113;BME280;45999;48.808;9.182;2023-07-13T04:50:17;98157.00;;;18.29;77.47
113;BME280;45999;48.808;9.182;2023-07-13T04:52:48;98168.53;;;18.25;76.79
113;BME280;45999;48.808;9.182;2023-07-13T04:55:14;98161.53;;;18.29;77.06
113;BME280;45999;48.808;9.182;2023-07-13T04:57:41;98168.28;;;18.31;75.78
113;BME280;45999;48.808;9.182;2023-07-13T05:00:08;98167.75;;;18.29;77.74
113;BME280;45999;48.808;9.182;2023-07-13T05:02:35;98163.97;;;18.30;77.75
113;BME280;45999;48.808;9.182;2023-07-13T05:05:01;98162.38;;;18.29;77.53
113;BME280;45999;48.808;9.182;2023-07-13T05:07:29;98172.84;;;18.26;75.81
113;BME280;45999;48.808;9.182;2023-07-13T05:09:55;98159.97;;;18.33;75.92
113;BME280;45999;48.808;9.182;2023-07-13T05:12:21;98173.19;;;18.49;76.55
113;BME280;45999;48.808;9.182;2023-07-13T05:14:48;98172.69;;;18.62;75.52
113;BME280;45999;48.808;9.182;2023-07-13T05:17:14;98179.16;;;18.86;74.10
113;BME280;45999;48.808;9.182;2023-07-13T05:19:41;98177.28;;;18.92;71.71
113;BME280;45999;48.808;9.182;2023-07-13T05:22:07;98180.00;;;18.92;73.74
113;BME280;45999;48.808;9.182;2023-07-13T05:24:34;98185.13;;;18.98;72.81
113;BME280;45999;48.808;9.182;2023-07-13T05:27:00;98182.41;;;18.98;71.22
113;BME280;45999;48.808;9.182;2023-07-13T05:29:26;98182.41;;;18.98;73.97
113;BME280;45999;48.808;9.182;2023-07-13T05:31:53;98177.03;;;19.08;68.48
113;BME280;45999;48.808;9.182;2023-07-13T05:34:19;98173.25;;;19.09;71.02
113;BME280;45999;48.808;9.182;2023-07-13T05:36:46;98173.25;;;19.14;70.02
113;BME280;45999;48.808;9.182;2023-07-13T05:39:12;98170.53;;;19.19;73.39
113;BME280;45999;48.808;9.182;2023-07-13T05:41:39;98171.63;;;19.18;73.81
113;BME280;45999;48.808;9.182;2023-07-13T05:44:05;98177.56;;;19.05;69.04
113;BME280;45999;48.808;9.182;2023-07-13T05:46:31;98181.59;;;18.98;70.46
113;BME280;45999;48.808;9.182;2023-07-13T05:48:58;98185.38;;;19.02;73.29
113;BME280;45999;48.808;9.182;2023-07-13T05:51:25;98188.34;;;19.00;70.90
113;BME280;45999;48.808;9.182;2023-07-13T05:53:51;98190.78;;;18.97;73.15
113;BME280;45999;48.808;9.182;2023-07-13T05:56:17;98196.69;;;19.04;72.93
113;BME280;45999;48.808;9.182;2023-07-13T05:58:44;98198.84;;;19.07;70.94
113;BME280;45999;48.808;9.182;2023-07-13T06:01:12;98199.09;;;19.10;73.40
113;BME280;45999;48.808;9.182;2023-07-13T06:03:40;98194.00;;;19.14;73.59
113;BME280;45999;48.808;9.182;2023-07-13T06:06:08;98196.44;;;19.20;70.85
113;BME280;45999;48.808;9.182;2023-07-13T06:08:35;98202.09;;;19.34;68.57
113;BME280;45999;48.808;9.182;2023-07-13T06:11:13;98202.34;;;19.63;69.59
113;BME280;45999;48.808;9.182;2023-07-13T06:13:40;98205.00;;;19.77;67.54
113;BME280;45999;48.808;9.182;2023-07-13T06:16:07;98207.97;;;19.76;69.35
113;BME280;45999;48.808;9.182;2023-07-13T06:18:34;98210.03;;;19.99;66.56
113;BME280;45999;48.808;9.182;2023-07-13T06:21:15;98205.25;;;19.76;63.11
113;BME280;45999;48.808;9.182;2023-07-13T06:23:43;98218.47;;;19.77;64.21
113;BME280;45999;48.808;9.182;2023-07-13T06:26:10;98220.84;;;19.99;64.60
113;BME280;45999;48.808;9.182;2023-07-13T06:28:37;98227.91;;;19.95;65.88
113;BME280;45999;48.808;9.182;2023-07-13T06:31:06;98223.84;;;19.88;62.74
113;BME280;45999;48.808;9.182;2023-07-13T06:33:33;98234.66;;;19.77;64.81
113;BME280;45999;48.808;9.182;2023-07-13T06:36:01;98230.91;;;19.63;65.01
113;BME280;45999;48.808;9.182;2023-07-13T06:38:28;98232.78;;;19.78;64.14
113;BME280;45999;48.808;9.182;2023-07-13T06:40:54;98230.59;;;19.95;63.93
113;BME280;45999;48.808;9.182;2023-07-13T06:43:20;98237.00;;;20.19;63.78
113;BME280;45999;48.808;9.182;2023-07-13T06:45:48;98249.94;;;20.27;62.73
113;BME280;45999;48.808;9.182;2023-07-13T06:48:19;98248.25;;;20.46;61.70
113;BME280;45999;48.808;9.182;2023-07-13T06:50:46;98249.91;;;20.37;60.41
113;BME280;45999;48.808;9.182;2023-07-13T06:53:12;98251.84;;;20.27;59.92
113;BME280;45999;48.808;9.182;2023-07-13T06:55:39;98249.09;;;20.37;58.95
113;BME280;45999;48.808;9.182;2023-07-13T06:58:06;98251.72;;;20.47;59.93
113;BME280;45999;48.808;9.182;2023-07-13T07:00:32;98249.88;;;20.42;59.35
113;BME280;45999;48.808;9.182;2023-07-13T07:02:59;98250.97;;;20.41;60.00
113;BME280;45999;48.808;9.182;2023-07-13T07:05:26;98253.94;;;20.40;59.69
113;BME280;45999;48.808;9.182;2023-07-13T07:07:54;98251.22;;;20.45;59.39
113;BME280;45999;48.808;9.182;2023-07-13T07:10:21;98251.16;;;20.55;60.35
113;BME280;45999;48.808;9.182;2023-07-13T07:12:48;98255.47;;;20.61;59.73
113;BME280;45999;48.808;9.182;2023-07-13T07:15:14;98249.72;;;20.77;60.48
113;BME280;45999;48.808;9.182;2023-07-13T07:17:41;98256.69;;;20.83;57.51
113;BME280;45999;48.808;9.182;2023-07-13T07:20:08;98244.53;;;20.81;57.38
113;BME280;45999;48.808;9.182;2023-07-13T07:22:34;98249.38;;;20.89;56.99
113;BME280;45999;48.808;9.182;2023-07-13T07:25:01;98250.09;;;21.04;56.07
113;BME280;45999;48.808;9.182;2023-07-13T07:27:27;98248.69;;;21.12;54.74
113;BME280;45999;48.808;9.182;2023-07-13T07:29:54;98250.81;;;21.20;55.12
113;BME280;45999;48.808;9.182;2023-07-13T07:32:22;98246.75;;;21.51;51.39
113;BME280;45999;48.808;9.182;2023-07-13T07:34:49;98258.25;;;21.33;52.26
113;BME280;45999;48.808;9.182;2023-07-13T07:37:16;98252.69;;;21.19;52.34
113;BME280;45999;48.808;9.182;2023-07-13T07:39:43;98245.91;;;21.22;51.15
113;BME280;45999;48.808;9.182;2023-07-13T07:42:10;98244.72;;;21.33;50.23
113;BME280;45999;48.808;9.182;2023-07-13T07:44:40;98248.00;;;21.63;50.58
113;BME280;45999;48.808;9.182;2023-07-13T07:47:07;98252.72;;;21.81;52.31
113;BME280;45999;48.808;9.182;2023-07-13T07:49:35;98249.13;;;21.57;48.23
113;BME280;45999;48.808;9.182;2023-07-13T07:52:01;98255.31;;;21.91;47.69
113;BME280;45999;48.808;9.182;2023-07-13T07:54:28;98254.25;;;22.16;46.79
113;BME280;45999;48.808;9.182;2023-07-13T07:56:54;98257.97;;;21.96;48.12
113;BME280;45999;48.808;9.182;2023-07-13T07:59:21;98245.50;;;21.72;51.34
113;BME280;45999;48.808;9.182;2023-07-13T08:01:47;98253.72;;;21.57;47.75
113;BME280;45999;48.808;9.182;2023-07-13T08:04:15;98259.03;;;21.72;50.59
113;BME280;45999;48.808;9.182;2023-07-13T08:06:42;98261.22;;;21.65;47.15
113;BME280;45999;48.808;9.182;2023-07-13T08:09:08;98263.25;;;21.83;50.85
113;BME280;45999;48.808;9.182;2023-07-13T08:11:34;98271.22;;;21.69;45.74
113;BME280;45999;48.808;9.182;2023-07-13T08:14:01;98267.31;;;21.85;48.09
113;BME280;45999;48.808;9.182;2023-07-13T08:16:28;98264.28;;;21.53;46.41
113;BME280;45999;48.808;9.182;2023-07-13T08:18:55;98259.06;;;21.67;47.25
113;BME280;45999;48.808;9.182;2023-07-13T08:21:21;98260.59;;;21.78;48.28
113;BME280;45999;48.808;9.182;2023-07-13T08:23:47;98267.78;;;21.59;47.52
113;BME280;45999;48.808;9.182;2023-07-13T08:26:14;98261.94;;;22.04;48.10
113;BME280;45999;48.808;9.182;2023-07-13T08:28:41;98254.53;;;22.14;48.85
113;BME280;45999;48.808;9.182;2023-07-13T08:31:08;98266.50;;;22.32;47.20
113;BME280;45999;48.808;9.182;2023-07-13T08:33:36;98264.34;;;22.76;45.89
113;BME280;45999;48.808;9.182;2023-07-13T08:36:04;98263.78;;;22.79;46.26
113;BME280;45999;48.808;9.182;2023-07-13T08:38:30;98256.69;;;22.12;47.54
113;BME280;45999;48.808;9.182;2023-07-13T08:40:57;98265.13;;;22.34;48.76
113;BME280;45999;48.808;9.182;2023-07-13T08:43:34;98266.16;;;22.62;47.35
113;BME280;45999;48.808;9.182;2023-07-13T08:46:09;98265.59;;;21.94;47.30
113;BME280;45999;48.808;9.182;2023-07-13T08:48:58;98268.56;;;22.40;48.63
113;BME280;45999;48.808;9.182;2023-07-13T08:51:49;98267.38;;;22.27;48.17
113;BME280;45999;48.808;9.182;2023-07-13T08:54:31;98276.94;;;22.67;46.70
113;BME280;45999;48.808;9.182;2023-07-13T08:57:01;98274.63;;;22.32;45.94
113;BME280;45999;48.808;9.182;2023-07-13T08:59:31;98274.16;;;22.53;46.81
113;BME280;45999;48.808;9.182;2023-07-13T09:04:45;98271.75;;;22.89;48.54
113;BME280;45999;48.808;9.182;2023-07-13T09:07:32;98263.91;;;22.87;46.05
113;BME280;45999;48.808;9.182;2023-07-13T09:15:34;98266.25;;;23.49;44.56
113;BME280;45999;48.808;9.182;2023-07-13T09:18:28;98260.81;;;23.49;45.39
113;BME280;45999;48.808;9.182;2023-07-13T09:21:03;98271.84;;;23.39;46.96
113;BME280;45999;48.808;9.182;2023-07-13T09:23:30;98264.50;;;23.72;46.00
113;BME280;45999;48.808;9.182;2023-07-13T09:26:06;98274.09;;;23.14;44.95
113;BME280;45999;48.808;9.182;2023-07-13T09:28:42;98272.72;;;23.35;42.72
113;BME280;45999;48.808;9.182;2023-07-13T09:31:33;98275.59;;;23.25;43.94
113;BME280;45999;48.808;9.182;2023-07-13T09:34:00;98266.34;;;23.26;44.28
113;BME280;45999;48.808;9.182;2023-07-13T09:36:30;98267.53;;;23.20;43.10
113;BME280;45999;48.808;9.182;2023-07-13T09:39:25;98260.38;;;23.42;42.09
113;BME280;45999;48.808;9.182;2023-07-13T09:42:15;98266.44;;;23.39;42.77
113;BME280;45999;48.808;9.182;2023-07-13T09:44:56;98274.03;;;23.37;44.42
113;BME280;45999;48.808;9.182;2023-07-13T09:47:25;98256.72;;;23.33;42.65
113;BME280;45999;48.808;9.182;2023-07-13T09:50:04;98261.19;;;23.75;45.67
113;BME280;45999;48.808;9.182;2023-07-13T09:55:37;98265.19;;;24.23;43.39
113;BME280;45999;48.808;9.182;2023-07-13T09:58:06;98267.09;;;24.09;43.33
113;BME280;45999;48.808;9.182;2023-07-13T10:00:36;98262.91;;;23.39;43.08
113;BME280;45999;48.808;9.182;2023-07-13T10:03:14;98261.69;;;23.45;42.85
113;BME280;45999;48.808;9.182;2023-07-13T10:05:44;98263.38;;;23.41;44.08
113;BME280;45999;48.808;9.182;2023-07-13T10:08:29;98260.84;;;23.95;43.73
113;BME280;45999;48.808;9.182;2023-07-13T10:11:09;98269.91;;;23.58;42.61
113;BME280;45999;48.808;9.182;2023-07-13T10:13:41;98269.06;;;23.26;42.77
113;BME280;45999;48.808;9.182;2023-07-13T10:16:09;98255.81;;;23.56;43.56
113;BME280;45999;48.808;9.182;2023-07-13T10:18:43;98262.22;;;23.79;41.94
113;BME280;45999;48.808;9.182;2023-07-13T10:21:13;98259.22;;;23.80;43.63
113;BME280;45999;48.808;9.182;2023-07-13T10:23:41;98253.16;;;23.83;41.37
113;BME280;45999;48.808;9.182;2023-07-13T10:26:16;98254.25;;;24.28;42.35
113;BME280;45999;48.808;9.182;2023-07-13T10:28:50;98255.25;;;24.45;42.97
113;BME280;45999;48.808;9.182;2023-07-13T10:31:18;98259.97;;;24.26;40.97
113;BME280;45999;48.808;9.182;2023-07-13T10:33:45;98248.00;;;24.27;41.55
113;BME280;45999;48.808;9.182;2023-07-13T10:36:23;98259.59;;;24.33;40.95
113;BME280;45999;48.808;9.182;2023-07-13T10:38:55;98256.66;;;24.43;42.15
113;BME280;45999;48.808;9.182;2023-07-13T10:41:24;98252.53;;;24.18;41.33
113;BME280;45999;48.808;9.182;2023-07-13T10:43:54;98261.19;;;24.07;40.96
113;BME280;45999;48.808;9.182;2023-07-13T10:46:24;98256.34;;;24.58;40.98
113;BME280;45999;48.808;9.182;2023-07-13T10:48:56;98251.72;;;24.72;41.73
113;BME280;45999;48.808;9.182;2023-07-13T10:51:24;98252.34;;;24.42;40.44
113;BME280;45999;48.808;9.182;2023-07-13T10:54:12;98249.19;;;24.35;43.75
113;BME280;45999;48.808;9.182;2023-07-13T10:56:40;98262.69;;;24.40;41.20
113;BME280;45999;48.808;9.182;2023-07-13T10:59:27;98248.38;;;24.75;44.37
113;BME280;45999;48.808;9.182;2023-07-13T11:01:56;98241.53;;;24.50;41.32
113;BME280;45999;48.808;9.182;2023-07-13T11:04:25;98246.28;;;24.58;41.53
113;BME280;45999;48.808;9.182;2023-07-13T11:06:57;98242.53;;;24.68;41.38
113;BME280;45999;48.808;9.182;2023-07-13T11:09:36;98248.91;;;24.23;43.62
113;BME280;45999;48.808;9.182;2023-07-13T11:12:28;98246.91;;;23.69;41.87
113;BME280;45999;48.808;9.182;2023-07-13T11:22:52;98242.09;;;23.80;41.43
113;BME280;45999;48.808;9.182;2023-07-13T11:33:10;98231.59;;;24.05;41.78
113;BME280;45999;48.808;9.182;2023-07-13T11:38:24;98225.28;;;24.10;41.23
113;BME280;45999;48.808;9.182;2023-07-13T11:40:54;98244.69;;;24.03;42.54
113;BME280;45999;48.808;9.182;2023-07-13T11:43:22;98232.19;;;24.02;40.56
113;BME280;45999;48.808;9.182;2023-07-13T11:45:50;98234.81;;;23.94;42.74
113;BME280;45999;48.808;9.182;2023-07-13T11:48:28;98234.19;;;24.37;41.88
113;BME280;45999;48.808;9.182;2023-07-13T11:51:02;98226.25;;;24.54;41.57
113;BME280;45999;48.808;9.182;2023-07-13T11:53:38;98222.25;;;24.87;40.61
113;BME280;45999;48.808;9.182;2023-07-13T11:56:06;98220.31;;;24.39;39.19
113;BME280;45999;48.808;9.182;2023-07-13T11:58:33;98227.66;;;24.38;40.64
113;BME280;45999;48.808;9.182;2023-07-13T12:01:01;98219.78;;;24.50;41.61
113;BME280;45999;48.808;9.182;2023-07-13T12:03:30;98227.75;;;24.74;40.33
113;BME280;45999;48.808;9.182;2023-07-13T12:06:03;98215.38;;;25.03;39.33
113;BME280;45999;48.808;9.182;2023-07-13T12:08:37;98220.13;;;25.20;39.38
113;BME280;45999;48.808;9.182;2023-07-13T12:11:14;98219.53;;;25.23;38.73
113;BME280;45999;48.808;9.182;2023-07-13T12:13:41;98217.19;;;25.30;37.88
113;BME280;45999;48.808;9.182;2023-07-13T12:16:23;98212.44;;;25.57;38.71
113;BME280;45999;48.808;9.182;2023-07-13T12:18:52;98216.50;;;25.46;38.56
113;BME280;45999;48.808;9.182;2023-07-13T12:21:23;98226.66;;;25.54;39.03
113;BME280;45999;48.808;9.182;2023-07-13T12:23:52;98219.91;;;25.52;36.93
113;BME280;45999;48.808;9.182;2023-07-13T12:26:18;98219.59;;;25.53;39.12
113;BME280;45999;48.808;9.182;2023-07-13T12:28:52;98218.09;;;25.69;36.26
113;BME280;45999;48.808;9.182;2023-07-13T12:33:59;98228.09;;;26.13;36.68
113;BME280;45999;48.808;9.182;2023-07-13T12:36:26;98215.88;;;26.02;38.19
113;BME280;45999;48.808;9.182;2023-07-13T12:38:57;98221.22;;;26.15;36.19
113;BME280;45999;48.808;9.182;2023-07-13T12:41:29;98220.13;;;26.25;34.75
113;BME280;45999;48.808;9.182;2023-07-13T12:43:55;98217.53;;;26.11;35.51
113;BME280;45999;48.808;9.182;2023-07-13T12:46:24;98206.44;;;26.08;33.89
113;BME280;45999;48.808;9.182;2023-07-13T12:48:52;98206.56;;;25.42;36.62
113;BME280;45999;48.808;9.182;2023-07-13T12:51:22;98213.97;;;26.02;36.11
113;BME280;45999;48.808;9.182;2023-07-13T12:53:56;98211.69;;;25.96;34.53
113;BME280;45999;48.808;9.182;2023-07-13T12:56:26;98213.00;;;25.76;36.34
113;BME280;45999;48.808;9.182;2023-07-13T12:59:02;98214.09;;;25.97;36.77
113;BME280;45999;48.808;9.182;2023-07-13T13:01:33;98206.66;;;25.89;37.13
113;BME280;45999;48.808;9.182;2023-07-13T13:04:03;98207.34;;;25.95;36.76
113;BME280;45999;48.808;9.182;2023-07-13T13:06:32;98214.16;;;25.84;38.14
113;BME280;45999;48.808;9.182;2023-07-13T13:09:01;98210.13;;;26.12;35.45
113;BME280;45999;48.808;9.182;2023-07-13T13:11:30;98208.41;;;26.24;35.64
113;BME280;45999;48.808;9.182;2023-07-13T13:13:57;98208.31;;;26.46;37.00
113;BME280;45999;48.808;9.182;2023-07-13T13:16:31;98205.28;;;26.39;35.22
113;BME280;45999;48.808;9.182;2023-07-13T13:19:05;98205.91;;;26.36;35.08
113;BME280;45999;48.808;9.182;2023-07-13T13:21:38;98219.41;;;26.02;35.96
113;BME280;45999;48.808;9.182;2023-07-13T13:24:11;98216.97;;;25.70;36.91
113;BME280;45999;48.808;9.182;2023-07-13T13:26:37;98213.03;;;25.85;36.72
113;BME280;45999;48.808;9.182;2023-07-13T13:29:15;98217.63;;;25.76;34.23
113;BME280;45999;48.808;9.182;2023-07-13T13:31:42;98210.72;;;25.70;34.13
113;BME280;45999;48.808;9.182;2023-07-13T13:34:13;98213.22;;;25.88;33.47
113;BME280;45999;48.808;9.182;2023-07-13T13:36:41;98196.75;;;25.63;34.97
113;BME280;45999;48.808;9.182;2023-07-13T13:39:29;98209.91;;;25.69;34.24
113;BME280;45999;48.808;9.182;2023-07-13T13:41:58;98205.56;;;25.60;34.95
113;BME280;45999;48.808;9.182;2023-07-13T13:44:25;98202.09;;;25.46;37.47
113;BME280;45999;48.808;9.182;2023-07-13T13:46:54;98201.13;;;25.72;34.38
113;BME280;45999;48.808;9.182;2023-07-13T13:49:26;98209.53;;;25.84;37.28
113;BME280;45999;48.808;9.182;2023-07-13T13:51:54;98195.50;;;25.69;34.84
113;BME280;45999;48.808;9.182;2023-07-13T13:54:22;98200.38;;;25.28;35.90
113;BME280;45999;48.808;9.182;2023-07-13T13:56:50;98190.16;;;25.33;34.01
113;BME280;45999;48.808;9.182;2023-07-13T13:59:17;98200.47;;;25.01;36.61
113;BME280;45999;48.808;9.182;2023-07-13T14:01:46;98198.84;;;25.22;37.04
113;BME280;45999;48.808;9.182;2023-07-13T14:04:19;98193.19;;;25.10;37.15
113;BME280;45999;48.808;9.182;2023-07-13T14:06:46;98183.28;;;25.14;34.75